Time;durP1;ratioP1;P1;durP2;ratioP2;P2;SDS_P1;SDS_P2;PMS_P1;PMS_P2;Temp;Humidity;BMP_temperature;BMP_pressure;BME280_temperature;BME280_humidity;BME280_pressure;Samples;Min_cycle;Max_cycle;Signal;HPM_P1;HPM_P2
2022/05/12 00:02:03;;;;;;;6.00;4.40;;;;;;;20.07;51.36;100479.19;5130752;27;20019;-66
2022/05/12 00:04:31;;;;;;;5.47;3.78;;;;;;;20.05;51.08;100477.66;5133085;27;20084;-65
2022/05/12 00:06:57;;;;;;;6.57;4.43;;;;;;;20.02;50.98;100476.19;5133215;27;20059;-65
2022/05/12 00:09:23;;;;;;;4.88;4.07;;;;;;;19.97;51.10;100469.63;5132926;27;20046;-65
2022/05/12 00:11:49;;;;;;;5.43;3.85;;;;;;;19.97;51.37;100475.06;5133232;27;20031;-66
2022/05/12 00:14:15;;;;;;;6.22;3.78;;;;;;;19.91;51.30;100473.09;5133128;27;20034;-65
2022/05/12 00:16:41;;;;;;;6.35;3.80;;;;;;;19.96;51.24;100476.13;5131678;27;20027;-65
2022/05/12 00:19:06;;;;;;;8.68;3.88;;;;;;;19.93;51.34;100468.31;5131350;27;20395;-66
2022/05/12 00:21:32;;;;;;;4.10;3.70;;;;;;;19.93;51.02;100480.03;5130024;27;20069;-72
2022/05/12 00:23:58;;;;;;;7.00;4.82;;;;;;;19.89;50.99;100469.72;5132282;27;20404;-72
2022/05/12 00:26:31;;;;;;;7.15;4.22;;;;;;;19.85;51.16;100472.00;5132392;27;20018;-73
2022/05/12 00:28:59;;;;;;;9.00;4.85;;;;;;;19.85;51.20;100477.44;5132312;27;20491;-72
2022/05/12 00:31:26;;;;;;;8.68;4.10;;;;;;;19.82;51.43;100471.50;5132255;27;20074;-72
2022/05/12 00:33:51;;;;;;;7.93;4.63;;;;;;;19.79;51.31;100461.84;5132271;27;20031;-72
2022/05/12 00:36:17;;;;;;;7.07;4.28;;;;;;;19.79;51.33;100463.72;5132025;27;20095;-72
2022/05/12 00:38:43;;;;;;;7.03;4.07;;;;;;;19.73;51.37;100459.91;5130668;27;20027;-72
2022/05/12 00:41:08;;;;;;;5.53;4.15;;;;;;;19.62;51.21;100444.06;5131649;27;20041;-72
2022/05/12 00:43:39;;;;;;;7.63;3.97;;;;;;;19.73;51.23;100468.06;5131998;27;20022;-72
2022/05/12 00:46:14;;;;;;;6.30;3.95;;;;;;;19.72;51.29;100462.81;5132197;27;20469;-72
2022/05/12 00:48:40;;;;;;;6.43;3.92;;;;;;;19.71;51.17;100464.72;5130540;27;20478;-71
2022/05/12 00:51:07;;;;;;;5.45;3.67;;;;;;;19.69;51.07;100471.34;5130714;27;20038;-72
2022/05/12 00:53:34;;;;;;;10.88;4.15;;;;;;;19.62;51.19;100459.53;5129006;27;20035;-72
2022/05/12 00:56:01;;;;;;;5.60;4.20;;;;;;;19.64;51.19;100473.81;5131897;27;20482;-72
2022/05/12 00:58:27;;;;;;;6.72;4.10;;;;;;;19.56;51.18;100446.69;5131571;27;20023;-71
2022/05/12 01:00:53;;;;;;;7.45;4.25;;;;;;;19.53;51.30;100453.34;5132077;27;20031;-71
2022/05/12 01:03:23;;;;;;;9.18;4.03;;;;;;;19.57;51.30;100462.81;5131435;27;20080;-73
2022/05/12 01:05:50;;;;;;;7.95;4.32;;;;;;;19.58;51.22;100461.78;5129169;27;20031;-72
2022/05/12 01:08:17;;;;;;;6.78;3.63;;;;;;;19.53;51.41;100455.22;5131629;27;20102;-73
2022/05/12 01:10:47;;;;;;;9.23;3.53;;;;;;;19.52;51.34;100457.13;5131374;27;20080;-73
2022/05/12 01:13:13;;;;;;;7.38;3.70;;;;;;;19.48;51.03;100452.25;5131511;27;20031;-73
2022/05/12 01:15:49;;;;;;;5.97;4.03;;;;;;;19.34;50.85;100429.44;5131571;27;20807;-72
2022/05/12 01:18:17;;;;;;;5.53;3.70;;;;;;;19.47;51.29;100461.41;5131616;27;20038;-71
2022/05/12 01:20:47;;;;;;;5.50;3.80;;;;;;;19.44;51.20;100456.38;5131424;27;20023;-72
2022/05/12 01:23:38;;;;;;;7.68;3.90;;;;;;;19.41;51.33;100454.84;5130095;27;20026;-72
2022/05/12 01:26:12;;;;;;;5.22;3.70;;;;;;;19.40;51.39;100453.16;5131322;27;20023;-73
2022/05/12 01:28:38;;;;;;;8.60;4.38;;;;;;;19.32;51.25;100450.53;5131305;27;20015;-72
2022/05/12 01:31:05;;;;;;;6.45;3.90;;;;;;;19.35;50.92;100461.03;5131376;27;20041;-72
2022/05/12 01:33:31;;;;;;;4.53;3.63;;;;;;;19.34;51.18;100455.78;5131180;27;20031;-72
2022/05/12 01:35:56;;;;;;;4.38;3.42;;;;;;;19.27;51.22;100444.81;5129930;27;20029;-72
2022/05/12 01:38:23;;;;;;;12.30;4.15;;;;;;;19.29;50.89;100453.66;5130842;27;20106;-73
2022/05/12 01:40:48;;;;;;;6.70;3.67;;;;;;;19.30;51.20;100455.34;5130961;27;20479;-72
2022/05/12 01:43:15;;;;;;;6.15;3.60;;;;;;;19.27;50.96;100452.97;5129999;27;20144;-72
2022/05/12 01:45:41;;;;;;;8.10;3.70;;;;;;;19.28;51.09;100468.25;5131014;27;20465;-71
2022/05/12 01:48:09;;;;;;;6.80;3.75;;;;;;;19.24;50.85;100466.91;5131085;27;20102;-72
2022/05/12 01:50:36;;;;;;;4.72;3.92;;;;;;;19.19;51.05;100458.47;5130420;27;20437;-72
2022/05/12 01:53:03;;;;;;;4.78;3.72;;;;;;;19.22;50.85;100463.53;5129876;27;20417;-73
2022/05/12 01:55:29;;;;;;;8.13;3.90;;;;;;;19.19;50.96;100469.34;5130642;27;20091;-73
2022/05/12 01:57:55;;;;;;;4.90;3.60;;;;;;;19.18;50.89;100466.81;5130714;27;20027;-73
2022/05/12 02:00:23;;;;;;;5.50;3.88;;;;;;;19.16;50.86;100468.88;5130485;27;20031;-73
2022/05/12 02:02:49;;;;;;;8.45;3.95;;;;;;;19.12;50.59;100465.69;5129462;27;20470;-72
2022/05/12 02:05:15;;;;;;;7.97;3.92;;;;;;;19.12;50.47;100462.97;5130805;27;20030;-72
2022/05/12 02:07:43;;;;;;;6.13;3.70;;;;;;;19.11;50.90;100464.00;5130399;27;20600;-73
2022/05/12 02:10:11;;;;;;;6.50;3.58;;;;;;;19.01;50.77;100449.84;5130604;27;20035;-71
2022/05/12 02:12:37;;;;;;;10.18;4.65;;;;;;;19.07;50.75;100459.97;5129261;27;20066;-72
2022/05/12 02:15:04;;;;;;;5.82;4.18;;;;;;;19.08;50.86;100463.50;5130660;27;20156;-73
2022/05/12 02:17:29;;;;;;;5.60;3.95;;;;;;;18.99;51.04;100460.03;5130645;27;20031;-66
2022/05/12 02:19:55;;;;;;;9.23;4.70;;;;;;;19.01;51.28;100463.44;5130948;27;20035;-66
2022/05/12 02:22:20;;;;;;;9.02;4.00;;;;;;;18.98;50.91;100468.38;5130940;28;20051;-67
2022/05/12 02:24:46;;;;;;;6.78;5.05;;;;;;;18.95;51.14;100460.59;5130718;27;20110;-66
2022/05/12 02:27:12;;;;;;;5.57;4.45;;;;;;;18.95;50.77;100469.59;5131140;27;20127;-66
2022/05/12 02:29:38;;;;;;;8.27;4.43;;;;;;;18.93;50.60;100466.22;5130918;27;20050;-66
2022/05/12 02:32:03;;;;;;;6.18;4.63;;;;;;;18.90;50.90;100463.88;5130923;27;20050;-66
2022/05/12 02:34:29;;;;;;;7.88;4.20;;;;;;;18.88;50.25;100460.50;5130902;27;20034;-66
2022/05/12 02:37:00;;;;;;;8.52;4.40;;;;;;;18.86;50.17;100467.16;5130982;27;20147;-65
2022/05/12 02:39:31;;;;;;;6.28;3.88;;;;;;;18.87;50.50;100463.41;5130271;27;20023;-67
2022/05/12 02:41:56;;;;;;;4.75;4.00;;;;;;;18.83;50.30;100457.47;5125580;27;20114;-65
2022/05/12 02:44:22;;;;;;;5.57;3.63;;;;;;;18.85;50.17;100465.44;5129502;27;20083;-66
2022/05/12 02:46:48;;;;;;;8.07;3.75;;;;;;;18.78;50.37;100459.91;5129096;27;20038;-65
2022/05/12 02:49:13;;;;;;;8.52;3.90;;;;;;;18.75;50.63;100454.00;5129754;27;20653;-67
2022/05/12 02:51:39;;;;;;;5.75;3.80;;;;;;;18.75;50.53;100454.00;5125163;27;20031;-66
2022/05/12 02:54:04;;;;;;;7.88;4.25;;;;;;;18.72;51.01;100449.78;5128414;27;20294;-66
2022/05/12 02:56:30;;;;;;;8.18;4.00;;;;;;;18.70;50.62;100453.72;5128366;28;20015;-66
2022/05/12 02:58:55;;;;;;;5.72;3.50;;;;;;;18.71;50.88;100461.69;5125817;27;20604;-66
2022/05/12 03:01:21;;;;;;;6.32;3.67;;;;;;;18.70;50.79;100456.44;5129466;27;20054;-66
2022/05/12 03:03:46;;;;;;;7.38;3.83;;;;;;;18.61;50.85;100455.66;5131450;27;20027;-66
2022/05/12 03:06:12;;;;;;;7.43;3.63;;;;;;;18.66;51.04;100463.22;5133320;27;20075;-66
2022/05/12 03:08:42;;;;;;;7.15;3.88;;;;;;;18.58;51.21;100456.03;5133095;27;20054;-65
2022/05/12 03:11:08;;;;;;;7.20;4.78;;;;;;;18.63;51.28;100474.50;5133581;27;20023;-66
2022/05/12 03:13:34;;;;;;;6.22;3.92;;;;;;;18.53;51.57;100457.56;5133186;27;20029;-65
2022/05/12 03:16:00;;;;;;;4.90;3.67;;;;;;;18.58;51.35;100466.03;5133362;27;20360;-66
2022/05/12 03:18:25;;;;;;;6.18;4.07;;;;;;;18.52;51.51;100462.19;5133120;27;20030;-66
2022/05/12 03:20:51;;;;;;;6.75;4.05;;;;;;;18.51;51.83;100459.66;5132867;27;20039;-66
2022/05/12 03:23:18;;;;;;;8.52;4.22;;;;;;;18.53;52.00;100471.16;5133007;27;20030;-66
2022/05/12 03:25:44;;;;;;;9.48;4.88;;;;;;;18.52;52.03;100475.75;5133016;27;20030;-65
2022/05/12 03:28:10;;;;;;;5.40;4.20;;;;;;;18.50;52.23;100476.97;5133064;27;20023;-65
2022/05/12 03:30:36;;;;;;;7.40;4.15;;;;;;;18.45;52.40;100472.09;5132840;27;20088;-66
2022/05/12 03:33:02;;;;;;;7.72;4.22;;;;;;;18.41;52.45;100464.47;5132989;27;20054;-65
2022/05/12 03:35:28;;;;;;;7.65;4.20;;;;;;;18.39;52.63;100458.38;5132457;27;20023;-65
2022/05/12 03:37:54;;;;;;;6.32;3.60;;;;;;;18.43;52.68;100471.41;5131471;27;20027;-65
2022/05/12 03:40:20;;;;;;;7.25;4.10;;;;;;;18.44;52.64;100480.41;5131090;27;20035;-65
2022/05/12 03:42:46;;;;;;;9.73;4.10;;;;;;;18.44;52.59;100481.25;5132688;27;20467;-66
2022/05/12 03:45:13;;;;;;;6.65;4.28;;;;;;;18.40;52.48;100474.50;5132445;27;20029;-66
2022/05/12 03:47:41;;;;;;;5.03;4.10;;;;;;;18.43;52.32;100478.69;5132442;27;20059;-66
2022/05/12 03:50:17;;;;;;;6.65;3.53;;;;;;;18.43;52.77;100479.56;5130960;27;20100;-66
2022/05/12 03:52:42;;;;;;;9.48;4.22;;;;;;;18.43;52.96;100473.28;5130838;27;20050;-65
2022/05/12 03:55:11;;;;;;;6.80;3.88;;;;;;;18.45;52.94;100471.22;5132808;27;20042;-65
2022/05/12 03:57:38;;;;;;;5.18;4.25;;;;;;;18.52;53.25;100480.34;5133384;27;20035;-65
2022/05/12 04:00:07;;;;;;;10.35;4.03;;;;;;;18.50;52.87;100464.22;5133477;27;20027;-65
2022/05/12 04:02:33;;;;;;;11.38;4.95;;;;;;;18.63;53.20;100478.03;5130736;27;20019;-65
2022/05/12 04:04:59;;;;;;;5.80;3.83;;;;;;;18.64;53.24;100463.41;5133464;27;20068;-66
2022/05/12 04:07:26;;;;;;;7.63;4.53;;;;;;;18.75;53.24;100449.41;5133316;27;20459;-67
2022/05/12 04:09:51;;;;;;;8.82;3.63;;;;;;;18.85;53.68;100450.00;5132348;27;20475;-66
2022/05/12 04:12:17;;;;;;;6.90;4.22;;;;;;;19.01;53.97;100465.28;5131865;27;20096;-66
2022/05/12 04:14:43;;;;;;;6.10;4.10;;;;;;;19.16;53.72;100469.75;5132193;27;20022;-67
2022/05/12 04:17:13;;;;;;;9.82;4.78;;;;;;;19.29;53.79;100469.13;5132964;27;20019;-66
2022/05/12 04:19:39;;;;;;;6.88;4.50;;;;;;;19.36;53.40;100454.59;5132769;27;20148;-66
2022/05/12 04:22:04;;;;;;;7.13;4.40;;;;;;;19.56;52.92;100466.59;5132925;27;20019;-66
2022/05/12 04:24:30;;;;;;;8.38;3.80;;;;;;;19.67;52.88;100462.56;5132769;27;20042;-71
2022/05/12 04:26:56;;;;;;;7.20;4.80;;;;;;;19.82;52.71;100460.63;5131383;27;20501;-72
2022/05/12 04:29:21;;;;;;;9.18;5.00;;;;;;;20.06;52.58;100477.47;5131428;27;20038;-72
2022/05/12 04:31:47;;;;;;;9.20;4.80;;;;;;;20.18;52.32;100469.69;5130929;27;20031;-72
2022/05/12 04:36:56;;;;;;;7.75;4.80;;;;;;;20.47;51.67;100471.47;5131020;27;20083;-72
2022/05/12 04:39:21;;;;;;;6.78;4.70;;;;;;;20.69;51.47;100486.75;5130802;27;20027;-72
2022/05/12 04:41:47;;;;;;;5.90;4.90;;;;;;;20.81;51.29;100501.56;5130890;27;20042;-72
2022/05/12 04:44:13;;;;;;;6.30;5.10;;;;;;;20.94;51.05;100504.44;5130591;27;20027;-73
2022/05/12 04:46:40;;;;;;;11.57;5.60;;;;;;;21.02;50.55;100505.13;5130870;27;20067;-72
2022/05/12 04:49:07;;;;;;;6.75;5.10;;;;;;;21.16;50.42;100503.38;5130949;27;20540;-72
2022/05/12 04:51:32;;;;;;;6.80;5.30;;;;;;;21.25;50.24;100504.91;5130562;27;20072;-72
2022/05/12 04:54:00;;;;;;;10.98;5.50;;;;;;;21.36;50.03;100505.19;5129743;27;20050;-71
2022/05/12 04:56:25;;;;;;;7.97;5.20;;;;;;;21.47;49.89;100512.00;5130094;27;20053;-72
2022/05/12 04:58:51;;;;;;;14.23;5.32;;;;;;;21.54;49.67;100510.16;5130064;27;20031;-72
2022/05/12 05:01:16;;;;;;;9.15;5.00;;;;;;;21.61;49.44;100491.91;5130189;27;20030;-71
2022/05/12 05:03:42;;;;;;;12.40;6.07;;;;;;;21.80;49.24;100510.34;5130351;27;20072;-71
2022/05/12 05:06:08;;;;;;;9.25;5.18;;;;;;;21.89;49.28;100499.03;5131407;27;20443;-70
2022/05/12 05:08:34;;;;;;;8.73;5.03;;;;;;;22.12;48.88;100512.38;5131394;27;20035;-70
2022/05/12 05:10:59;;;;;;;10.85;5.30;;;;;;;22.28;48.31;100510.09;5133547;27;20031;-72
2022/05/12 05:13:25;;;;;;;10.90;5.90;;;;;;;22.45;47.94;100498.81;5129594;27;20073;-72
2022/05/12 05:16:02;;;;;;;9.23;5.47;;;;;;;22.60;47.33;100499.50;5129636;27;20030;-73
2022/05/12 05:18:27;;;;;;;11.52;5.55;;;;;;;22.77;47.28;100503.53;5130473;27;20080;-70
2022/05/12 05:20:59;;;;;;;11.45;5.30;;;;;;;22.81;46.86;100491.97;5130402;27;20583;-74
2022/05/12 05:23:24;;;;;;;9.52;5.22;;;;;;;22.99;47.13;100505.00;5130580;27;20034;-72
2022/05/12 05:25:51;;;;;;;7.78;4.53;;;;;;;22.98;47.00;100506.03;5130390;27;20023;-70
2022/05/12 05:28:16;;;;;;;8.27;4.78;;;;;;;23.06;47.19;100514.06;5130877;27;20084;-71
2022/05/12 05:30:42;;;;;;;10.77;5.65;;;;;;;23.04;47.13;100519.75;5130690;27;20027;-70
2022/05/12 05:33:08;;;;;;;11.25;5.95;;;;;;;22.98;47.37;100508.78;5130961;27;20023;-71
2022/05/12 05:35:34;;;;;;;10.82;5.07;;;;;;;22.99;47.43;100519.53;5130840;27;20087;-72
2022/05/12 05:38:00;;;;;;;7.50;5.03;;;;;;;23.04;47.39;100522.47;5130993;27;20379;-73
2022/05/12 05:40:26;;;;;;;8.85;5.15;;;;;;;23.10;47.37;100520.78;5129121;27;20034;-71
2022/05/12 05:42:53;;;;;;;12.27;5.07;;;;;;;23.19;47.56;100530.47;5129239;27;20050;-71
2022/05/12 05:45:19;;;;;;;13.23;5.43;;;;;;;23.22;47.50;100519.97;5130243;27;20027;-71
2022/05/12 05:47:50;;;;;;;8.52;4.90;;;;;;;23.30;47.22;100522.50;5130049;27;20482;-72
2022/05/12 05:50:20;;;;;;;8.80;5.57;;;;;;;23.40;47.01;100525.66;5130096;27;20026;-70
2022/05/12 05:55:29;;;;;;;9.60;5.88;;;;;;;23.67;46.22;100526.47;5130218;27;20038;-70
2022/05/12 05:57:58;;;;;;;11.30;5.40;;;;;;;23.77;45.76;100530.41;5129989;27;20462;-70
2022/05/12 06:00:23;;;;;;;11.35;5.10;;;;;;;23.88;45.72;100527.03;5129549;27;20110;-71
2022/05/12 06:02:50;;;;;;;12.10;5.50;;;;;;;23.89;45.66;100522.41;5129505;27;20114;-70
2022/05/12 06:05:17;;;;;;;15.40;6.20;;;;;;;23.95;45.40;100529.78;5130442;27;20034;-70
2022/05/12 06:07:44;;;;;;;9.73;5.00;;;;;;;24.04;45.37;100523.00;5129024;27;20031;-71
2022/05/12 06:10:10;;;;;;;10.02;5.32;;;;;;;24.18;45.14;100533.69;5130425;27;20387;-70
2022/05/12 06:12:36;;;;;;;7.57;5.28;;;;;;;24.26;45.32;100527.97;5130487;27;20038;-70
2022/05/12 06:15:01;;;;;;;11.68;5.40;;;;;;;24.42;44.94;100538.44;5130342;27;20019;-70
2022/05/12 06:17:27;;;;;;;9.43;5.18;;;;;;;24.48;44.77;100537.53;5128812;28;20047;-71
2022/05/12 06:19:54;;;;;;;8.70;5.00;;;;;;;24.61;44.45;100538.53;5130149;27;20035;-71
2022/05/12 06:22:20;;;;;;;9.32;4.63;;;;;;;24.71;44.30;100536.19;5130202;27;20095;-70
2022/05/12 06:24:49;;;;;;;7.35;5.38;;;;;;;24.86;44.19;100539.47;5130196;27;20039;-71
2022/05/12 06:27:19;;;;;;;8.18;4.90;;;;;;;24.98;43.82;100540.47;5130529;27;20438;-71
2022/05/12 06:29:45;;;;;;;11.35;4.90;;;;;;;25.07;43.87;100537.19;5131367;27;20027;-66
2022/05/12 06:32:11;;;;;;;8.35;4.60;;;;;;;25.20;43.90;100545.34;5128949;28;20484;-67
2022/05/12 06:34:37;;;;;;;6.30;4.47;;;;;;;25.28;43.94;100541.47;5130100;28;20015;-66
2022/05/12 06:37:04;;;;;;;8.63;4.93;;;;;;;25.37;43.94;100551.97;5131374;27;20506;-68
2022/05/12 06:39:30;;;;;;;10.63;4.90;;;;;;;25.45;44.17;100548.97;5134654;27;20031;-67
2022/05/12 06:41:55;;;;;;;8.35;5.20;;;;;;;25.59;43.65;100552.41;5135369;27;20466;-66
2022/05/12 06:44:21;;;;;;;7.57;4.70;;;;;;;25.76;43.06;100553.53;5134994;27;20031;-67
2022/05/12 06:46:46;;;;;;;7.25;5.07;;;;;;;25.85;42.66;100543.88;5134965;27;20019;-67
2022/05/12 06:49:12;;;;;;;9.70;5.00;;;;;;;25.90;42.46;100533.91;5135255;27;20099;-67
2022/05/12 06:51:39;;;;;;;12.07;5.25;;;;;;;26.06;42.32;100552.53;5135016;27;20034;-67
2022/05/12 06:54:05;;;;;;;11.50;5.45;;;;;;;26.15;41.91;100547.59;5135253;27;20058;-66
2022/05/12 06:56:30;;;;;;;10.60;5.20;;;;;;;26.24;41.86;100552.56;5134971;27;20015;-67
2022/05/12 06:58:55;;;;;;;7.43;4.88;;;;;;;26.31;41.91;100538.72;5134897;27;20053;-67
2022/05/12 07:01:21;;;;;;;8.70;5.07;;;;;;;26.49;41.28;100544.19;5135192;27;20756;-67
2022/05/12 07:03:46;;;;;;;10.95;5.28;;;;;;;26.50;40.97;100534.84;5134579;27;20204;-67
2022/05/12 07:06:12;;;;;;;7.18;5.15;;;;;;;26.66;40.98;100538.91;5133867;27;20363;-68
2022/05/12 07:08:42;;;;;;;7.80;4.78;;;;;;;26.75;40.51;100532.84;5133935;27;20027;-67
2022/05/12 07:11:11;;;;;;;10.00;5.45;;;;;;;26.86;40.45;100534.81;5134821;27;20035;-67
2022/05/12 07:13:37;;;;;;;10.55;5.35;;;;;;;26.96;40.10;100537.81;5134839;27;20027;-67
2022/05/12 07:16:04;;;;;;;9.85;5.10;;;;;;;27.00;40.13;100527.16;5135062;27;20150;-67
2022/05/12 07:18:30;;;;;;;11.05;6.05;;;;;;;27.10;39.89;100522.75;5134645;27;20034;-67
2022/05/12 07:26:35;;;;;;;14.15;5.25;;;;;;;27.43;39.38;100525.81;5134726;27;19955;-67
2022/05/12 07:29:05;;;;;;;11.27;5.20;;;;;;;27.53;39.92;100526.06;5134733;27;20027;-65
2022/05/12 07:31:32;;;;;;;16.25;6.30;;;;;;;27.71;39.19;100525.09;5134357;27;20065;-67
2022/05/12 07:33:58;;;;;;;8.48;4.85;;;;;;;27.82;38.85;100527.03;5134563;27;20498;-67
2022/05/12 07:36:37;;;;;;;9.55;5.63;;;;;;;27.89;38.76;100519.47;5134333;27;20509;-67
2022/05/12 07:39:03;;;;;;;12.40;5.72;;;;;;;28.00;38.35;100519.47;5132012;27;20023;-66
2022/05/12 07:41:29;;;;;;;7.63;5.38;;;;;;;28.14;38.23;100520.84;5132998;27;20038;-67
2022/05/12 07:43:56;;;;;;;12.13;5.60;;;;;;;28.21;38.32;100524.31;5133040;27;20023;-67
2022/05/12 07:46:24;;;;;;;7.00;5.40;;;;;;;28.31;37.95;100524.50;5132937;27;20026;-66
2022/05/12 07:48:51;;;;;;;9.13;5.43;;;;;;;28.35;37.62;100522.13;5132404;27;20043;-66
2022/05/12 07:51:18;;;;;;;11.25;5.90;;;;;;;28.39;37.68;100512.25;5132864;27;20023;-66
2022/05/12 07:53:47;;;;;;;10.68;5.50;;;;;;;28.39;38.42;100502.06;5133847;27;20120;-66
2022/05/12 07:56:14;;;;;;;8.95;5.68;;;;;;;28.47;38.01;100504.44;5132181;27;20467;-66
2022/05/12 07:58:40;;;;;;;7.57;4.88;;;;;;;28.65;37.87;100508.94;5133482;27;20498;-66
2022/05/12 08:01:06;;;;;;;10.65;5.10;;;;;;;28.79;37.59;100512.25;5133996;27;20039;-67
2022/05/12 08:03:31;;;;;;;12.60;5.65;;;;;;;28.94;36.77;100512.50;5132102;27;20038;-66
2022/05/12 08:05:58;;;;;;;10.13;5.18;;;;;;;29.03;36.78;100508.25;5133675;27;20038;-67
2022/05/12 08:08:24;;;;;;;9.60;5.65;;;;;;;29.17;36.81;100515.97;5133035;27;20045;-70
2022/05/12 08:10:49;;;;;;;9.55;5.50;;;;;;;29.29;36.95;100519.50;5132876;27;20039;-70
2022/05/12 08:13:16;;;;;;;6.57;5.05;;;;;;;29.36;36.61;100514.66;5132769;27;20027;-71
2022/05/12 08:15:46;;;;;;;7.50;4.93;;;;;;;29.49;36.85;100514.28;5129003;27;20107;-70
2022/05/12 08:18:13;;;;;;;8.55;5.53;;;;;;;29.63;36.24;100509.28;5131819;27;20471;-70
2022/05/12 08:20:39;;;;;;;13.73;5.32;;;;;;;29.69;36.26;100511.88;5131575;27;20076;-70
2022/05/12 08:23:05;;;;;;;15.02;5.70;;;;;;;29.79;35.89;100519.47;5131274;27;20038;-70
2022/05/12 08:25:31;;;;;;;11.55;4.97;;;;;;;29.86;35.24;100520.94;5131441;27;20118;-70
2022/05/12 08:27:57;;;;;;;11.15;5.55;;;;;;;29.94;35.68;100517.75;5131545;27;20023;-70
2022/05/12 08:30:22;;;;;;;10.52;5.25;;;;;;;29.94;35.40;100503.94;5131447;27;20038;-70
2022/05/12 08:32:48;;;;;;;8.00;5.68;;;;;;;29.99;35.44;100500.41;5129713;27;20073;-70
2022/05/12 08:35:14;;;;;;;9.73;5.18;;;;;;;30.08;35.50;100513.50;5131236;27;20037;-70
2022/05/12 08:37:40;;;;;;;8.77;4.78;;;;;;;30.10;35.19;100507.72;5131158;27;20019;-70
2022/05/12 08:40:07;;;;;;;10.48;4.90;;;;;;;30.13;34.96;100504.44;5131295;27;20027;-70
2022/05/12 08:42:41;;;;;;;9.20;5.07;;;;;;;30.21;35.30;100496.56;5130921;27;20038;-71
2022/05/12 08:45:08;;;;;;;9.63;4.95;;;;;;;30.30;35.03;100494.16;5129709;27;20084;-70
2022/05/12 08:47:41;;;;;;;9.77;5.18;;;;;;;30.36;34.63;100488.44;5131123;27;20043;-70
2022/05/12 08:50:08;;;;;;;7.55;4.93;;;;;;;30.44;34.41;100495.44;5129395;27;20336;-70
2022/05/12 08:52:38;;;;;;;7.80;4.78;;;;;;;30.48;34.17;100493.81;5130737;27;20043;-70
2022/05/12 08:55:18;;;;;;;6.53;4.80;;;;;;;30.53;34.27;100494.72;5130998;27;20051;-69
2022/05/12 08:58:03;;;;;;;11.20;5.20;;;;;;;30.60;33.67;100489.78;5130852;27;20440;-70
2022/05/12 09:00:37;;;;;;;8.45;4.90;;;;;;;30.69;33.59;100489.34;5130166;27;20072;-70
2022/05/12 09:03:14;;;;;;;9.30;4.13;;;;;;;30.69;33.72;100494.88;5129400;27;20027;-70
2022/05/12 09:06:03;;;;;;;9.93;4.82;;;;;;;30.74;33.67;100493.03;5130774;27;20050;-69
2022/05/12 09:09:10;;;;;;;9.57;5.15;;;;;;;30.76;32.95;100498.31;5130129;27;20604;-65
2022/05/12 09:12:01;;;;;;;9.40;4.72;;;;;;;30.74;33.10;100504.09;5130275;27;20039;-67
2022/05/12 09:15:16;;;;;;;11.15;4.70;;;;;;;30.74;33.35;100509.66;5131382;27;20415;-70
2022/05/12 09:17:54;;;;;;;8.93;4.63;;;;;;;30.79;33.51;100506.94;5068874;28;20060;-69
2022/05/12 09:20:22;;;;;;;9.00;4.55;;;;;;;30.83;33.37;100504.47;5127763;27;20387;-70
2022/05/12 09:22:47;;;;;;;10.38;5.05;;;;;;;30.84;33.02;100500.59;5131609;27;20746;-71
2022/05/12 09:25:28;;;;;;;9.80;4.97;;;;;;;30.80;33.39;100494.75;5132061;27;20029;-71
2022/05/12 09:27:53;;;;;;;8.88;4.72;;;;;;;30.84;33.16;100497.81;5129408;27;20383;-71
2022/05/12 09:30:31;;;;;;;12.73;5.05;;;;;;;30.84;33.32;100501.44;5130499;27;20023;-71
2022/05/12 09:32:58;;;;;;;9.60;4.72;;;;;;;30.84;33.32;100504.22;5130295;27;20114;-71
2022/05/12 09:35:26;;;;;;;8.68;5.25;;;;;;;30.82;33.30;100498.06;5128568;27;20087;-71
2022/05/12 09:37:53;;;;;;;9.23;5.10;;;;;;;30.79;33.60;100495.84;5130087;27;20031;-71
2022/05/12 09:40:32;;;;;;;9.85;5.22;;;;;;;30.75;33.54;100480.84;5130138;27;20098;-71
2022/05/12 09:43:00;;;;;;;6.55;4.55;;;;;;;30.85;33.66;100491.19;5127517;27;20068;-70
2022/05/12 09:45:31;;;;;;;8.70;5.10;;;;;;;30.94;33.53;100489.59;5129982;27;20410;-70
2022/05/12 09:48:15;;;;;;;10.93;5.38;;;;;;;30.97;33.69;100489.91;5128968;27;20023;-71
2022/05/12 09:50:42;;;;;;;7.55;5.10;;;;;;;30.97;33.74;100480.75;5129111;27;20066;-71
2022/05/12 09:53:09;;;;;;;7.97;5.60;;;;;;;30.95;34.10;100463.59;5131363;27;20495;-70
2022/05/12 09:55:42;;;;;;;9.45;5.60;;;;;;;31.07;34.17;100476.16;5131502;27;20035;-71
2022/05/12 09:58:13;;;;;;;8.73;5.13;;;;;;;31.16;33.54;100480.09;5131572;27;20026;-71
2022/05/12 10:00:40;;;;;;;8.35;5.80;;;;;;;31.21;33.77;100474.59;5130032;27;20031;-71
2022/05/12 10:09:19;;;;;;;9.45;5.18;;;;;;;31.20;33.27;100464.59;5130531;27;20132;-70
2022/05/12 10:12:02;;;;;;;11.35;4.90;;;;;;;31.34;33.14;100479.72;5130333;27;20031;-71
2022/05/12 10:14:33;;;;;;;9.77;5.25;;;;;;;31.39;33.31;100465.06;5130236;27;20030;-70
2022/05/12 10:17:01;;;;;;;8.73;5.22;;;;;;;31.43;33.48;100469.78;5131413;27;20045;-71
2022/05/12 10:19:29;;;;;;;7.72;4.93;;;;;;;31.50;33.44;100464.84;5131233;27;20019;-70
2022/05/12 10:22:00;;;;;;;7.28;4.78;;;;;;;31.55;33.29;100466.81;5131257;27;20038;-71
2022/05/12 10:24:58;;;;;;;6.72;4.93;;;;;;;31.51;33.14;100458.22;5130450;27;20387;-70
2022/05/12 10:27:53;;;;;;;8.50;5.35;;;;;;;31.51;32.76;100458.22;5130899;28;20023;-71
2022/05/12 10:30:53;;;;;;;7.30;4.88;;;;;;;31.43;32.70;100449.56;5129026;28;20055;-70
2022/05/12 10:33:34;;;;;;;10.95;5.90;;;;;;;31.49;32.60;100460.41;5111127;28;20122;-70
2022/05/12 10:36:28;;;;;;;7.93;4.90;;;;;;;31.47;32.37;100450.69;5129157;27;20081;-70
2022/05/12 10:39:16;;;;;;;;;;;;;;;31.44;32.49;100454.84;5129862;28;20498;-70
2022/05/12 10:42:07;;;;;;;7.60;4.22;;;;;;;31.43;32.08;100435.72;5129607;27;19918;-71
2022/05/12 10:44:51;;;;;;;6.97;4.35;;;;;;;31.50;31.51;100447.38;5126688;28;20027;-71
2022/05/12 10:47:44;;;;;;;6.32;4.68;;;;;;;31.50;31.36;100439.06;5128611;28;20019;-71
2022/05/12 10:50:13;;;;;;;8.70;4.50;;;;;;;31.57;31.69;100442.44;5128893;28;20071;-71
2022/05/12 10:52:44;;;;;;;12.27;5.60;;;;;;;31.58;31.96;100444.09;5131043;27;20075;-71
2022/05/12 10:55:47;;;;;;;7.50;4.50;;;;;;;31.59;31.59;100438.28;5131796;27;20120;-70
2022/05/12 10:58:38;;;;;;;8.80;5.00;;;;;;;31.57;31.87;100434.97;5130538;28;20076;-70
2022/05/12 11:01:13;;;;;;;10.25;5.25;;;;;;;31.60;31.89;100441.91;5131443;27;20436;-70
2022/05/12 11:03:57;;;;;;;11.90;5.07;;;;;;;31.59;31.51;100429.16;5131209;27;20421;-70
2022/05/12 11:06:36;;;;;;;;;;;;;;;31.58;31.47;100430.22;5128507;28;20080;-70
2022/05/12 11:09:10;;;;;;;9.90;4.72;;;;;;;31.63;31.75;100433.84;5130259;28;19960;-70
2022/05/12 11:11:44;;;;;;;7.65;4.47;;;;;;;31.68;31.85;100430.28;5130128;28;20031;-70
2022/05/12 11:14:17;;;;;;;11.05;5.28;;;;;;;31.69;31.88;100420.88;5127251;28;20141;-70
2022/05/12 11:17:07;;;;;;;5.78;4.45;;;;;;;31.67;31.96;100418.38;5129723;28;20050;-70
2022/05/12 11:19:33;;;;;;;5.75;4.07;;;;;;;31.69;31.00;100418.09;5129745;27;20051;-70
2022/05/12 11:22:32;;;;;;;8.60;4.22;;;;;;;31.60;30.42;100416.94;5129401;27;20080;-70
2022/05/12 11:25:05;;;;;;;8.90;4.18;;;;;;;31.65;30.96;100414.16;5131531;27;20050;-70
2022/05/12 11:31:12;;;;;;;7.75;4.13;;;;;;;31.54;30.71;100413.31;5132675;27;20037;-66
2022/05/12 11:33:41;;;;;;;7.97;4.30;;;;;;;31.50;30.91;100409.38;5132749;27;20031;-66
2022/05/12 11:36:09;;;;;;;8.65;4.25;;;;;;;31.51;30.54;100413.84;5131460;27;20483;-67
2022/05/12 11:38:42;;;;;;;7.80;3.90;;;;;;;31.49;30.27;100406.88;5129880;27;20027;-67
2022/05/12 11:41:32;;;;;;;10.30;4.33;;;;;;;31.44;29.94;100404.09;5128994;27;20033;-66
2022/05/12 11:44:33;;;;;;;4.13;3.70;;;;;;;31.39;29.96;100410.44;5131152;27;20047;-67
2022/05/12 11:47:14;;;;;;;9.85;4.18;;;;;;;31.37;30.95;100407.09;5131981;27;20349;-66
2022/05/12 11:50:15;;;;;;;5.72;3.88;;;;;;;31.35;30.38;100401.00;5132442;27;20030;-67
2022/05/12 11:53:03;;;;;;;7.35;3.78;;;;;;;31.38;30.52;100400.47;5132173;27;20043;-66
2022/05/12 11:55:33;;;;;;;7.85;4.00;;;;;;;31.36;30.88;100396.25;5131496;27;20467;-66
2022/05/12 11:58:01;;;;;;;6.60;3.92;;;;;;;31.38;31.22;100400.47;5132693;27;20023;-66